createdAt,value
2022-12-09T00:01:14.858Z,2.38
2022-12-09T00:03:44.108Z,2.37
2022-12-09T00:06:16.000Z,2.32
2022-12-09T00:08:45.873Z,2.28
2022-12-09T00:11:15.080Z,2.26
2022-12-09T00:13:43.667Z,2.24
2022-12-09T00:16:14.810Z,2.21
2022-12-09T00:18:44.010Z,2.21
2022-12-09T00:21:14.085Z,2.18
2022-12-09T00:23:43.026Z,2.19
2022-12-09T00:26:13.119Z,2.20
2022-12-09T00:28:41.610Z,2.20
2022-12-09T00:31:10.014Z,2.24
2022-12-09T00:33:38.187Z,2.29
2022-12-09T00:36:09.866Z,2.29
2022-12-09T00:38:38.690Z,2.33
2022-12-09T00:41:07.566Z,2.35
2022-12-09T00:43:37.549Z,2.38
2022-12-09T00:46:06.159Z,2.41
2022-12-09T00:48:36.224Z,2.46
2022-12-09T00:51:04.777Z,2.45
2022-12-09T00:53:33.326Z,2.49
2022-12-09T00:56:01.854Z,2.50
2022-12-09T00:58:30.202Z,2.50
2022-12-09T01:00:59.827Z,2.46
2022-12-09T01:03:28.650Z,2.47
2022-12-09T01:05:57.435Z,2.46
2022-12-09T01:08:25.930Z,2.43
2022-12-09T01:10:54.148Z,2.39
2022-12-09T01:13:22.367Z,2.38
2022-12-09T01:15:50.577Z,2.34
2022-12-09T01:18:20.113Z,2.31
2022-12-09T01:20:57.905Z,2.31
2022-12-09T01:23:26.894Z,2.29
2022-12-09T01:25:54.991Z,2.27
2022-12-09T01:28:23.140Z,2.29
2022-12-09T01:30:51.595Z,2.23
2022-12-09T01:33:21.262Z,2.29
2022-12-09T01:35:49.695Z,2.32
2022-12-09T01:38:17.785Z,2.30
2022-12-09T01:40:47.703Z,2.34
2022-12-09T01:43:19.298Z,2.37
2022-12-09T01:45:47.933Z,2.38
2022-12-09T01:48:18.147Z,2.35
2022-12-09T01:50:52.503Z,2.38
2022-12-09T01:53:25.083Z,2.39
2022-12-09T01:55:55.521Z,2.40
2022-12-09T01:58:24.090Z,2.40
2022-12-09T02:00:52.704Z,2.43
2022-12-09T02:03:20.984Z,2.47
2022-12-09T02:05:51.107Z,2.47
2022-12-09T02:08:21.188Z,2.47
2022-12-09T02:10:58.092Z,2.48
2022-12-09T02:13:39.400Z,2.44
2022-12-09T02:16:14.320Z,2.44
2022-12-09T02:18:51.699Z,2.40
2022-12-09T02:21:28.792Z,2.36
2022-12-09T02:24:03.037Z,2.32
2022-12-09T02:26:39.228Z,2.28
2022-12-09T02:29:46.354Z,2.23
2022-12-09T02:32:38.632Z,2.18
2022-12-09T02:35:12.080Z,2.25
2022-12-09T02:37:45.454Z,2.22
2022-12-09T02:40:19.491Z,2.20
2022-12-09T02:42:50.177Z,2.23
2022-12-09T02:45:21.089Z,2.22
2022-12-09T02:47:53.002Z,2.24
2022-12-09T02:50:26.774Z,2.14
2022-12-09T02:52:57.562Z,2.14
2022-12-09T02:55:26.352Z,2.15
2022-12-09T02:58:00.633Z,2.16
2022-12-09T03:00:30.061Z,2.15
2022-12-09T03:03:01.731Z,2.15
2022-12-09T03:05:42.409Z,2.15
2022-12-09T03:08:19.249Z,2.12
2022-12-09T03:11:02.300Z,2.08
2022-12-09T03:13:54.018Z,2.04
2022-12-09T03:16:31.115Z,1.99
2022-12-09T03:19:05.340Z,1.96
2022-12-09T03:21:42.152Z,1.95
2022-12-09T03:24:12.895Z,1.92
2022-12-09T03:26:43.709Z,1.92
2022-12-09T03:29:17.801Z,1.87
2022-12-09T03:31:48.616Z,1.87
2022-12-09T03:34:19.989Z,1.87
2022-12-09T03:36:52.164Z,1.84
2022-12-09T03:39:27.284Z,1.82
2022-12-09T03:41:59.604Z,1.78
2022-12-09T03:44:35.692Z,1.79
2022-12-09T03:47:08.053Z,1.76
2022-12-09T03:49:38.361Z,1.76
2022-12-09T03:52:13.432Z,1.87
2022-12-09T03:54:44.912Z,1.75
2022-12-09T03:57:18.957Z,1.71
2022-12-09T03:59:53.479Z,1.71
2022-12-09T04:02:22.298Z,1.68
2022-12-09T04:04:50.712Z,1.66
2022-12-09T04:07:20.778Z,1.66
2022-12-09T04:09:49.052Z,1.62
2022-12-09T04:12:17.646Z,1.63
2022-12-09T04:14:46.408Z,1.61
2022-12-09T04:17:14.713Z,1.59
2022-12-09T04:19:43.289Z,1.58
2022-12-09T04:22:15.083Z,1.58
2022-12-09T04:24:44.710Z,1.56
2022-12-09T04:27:13.298Z,1.53
2022-12-09T04:29:41.505Z,1.51
2022-12-09T04:32:09.706Z,1.51
2022-12-09T04:34:37.911Z,1.50
2022-12-09T04:37:06.433Z,1.50
2022-12-09T04:39:34.930Z,1.52
2022-12-09T04:42:04.649Z,1.50
2022-12-09T04:44:32.914Z,1.48
2022-12-09T04:47:01.296Z,1.48
2022-12-09T04:49:29.638Z,1.47
2022-12-09T04:51:58.188Z,1.43
2022-12-09T04:54:26.679Z,1.41
2022-12-09T04:56:54.939Z,1.41
2022-12-09T04:59:24.458Z,1.37
2022-12-09T05:01:52.855Z,1.39
2022-12-09T05:04:21.505Z,1.37
2022-12-09T05:06:50.189Z,1.35
2022-12-09T05:09:18.945Z,1.32
2022-12-09T05:11:47.356Z,1.33
2022-12-09T05:14:15.887Z,1.33
2022-12-09T05:16:46.087Z,1.31
2022-12-09T05:19:14.533Z,1.28
2022-12-09T05:21:44.135Z,1.26
2022-12-09T05:24:12.526Z,1.24
2022-12-09T05:26:41.262Z,1.22
2022-12-09T05:29:09.441Z,1.18
2022-12-09T05:31:37.841Z,1.15
2022-12-09T05:34:07.773Z,1.15
2022-12-09T05:36:36.084Z,1.13
2022-12-09T05:39:04.956Z,1.11
2022-12-09T05:41:33.315Z,1.10
2022-12-09T05:44:02.200Z,1.05
2022-12-09T05:46:31.407Z,1.06
2022-12-09T05:48:59.847Z,1.05
2022-12-09T05:51:31.338Z,1.02
2022-12-09T05:54:02.718Z,0.98
2022-12-09T05:56:31.829Z,0.97
2022-12-09T05:59:00.814Z,0.96
2022-12-09T06:01:31.984Z,0.96
2022-12-09T06:04:00.514Z,0.95
2022-12-09T06:06:32.150Z,0.94
2022-12-09T06:09:02.809Z,0.92
2022-12-09T06:11:32.963Z,0.88
2022-12-09T06:14:01.673Z,0.85
2022-12-09T06:16:30.721Z,0.85
2022-12-09T06:18:59.348Z,0.84
2022-12-09T06:21:27.959Z,0.82
2022-12-09T06:23:57.985Z,0.83
2022-12-09T06:26:28.241Z,0.84
2022-12-09T06:28:58.434Z,0.82
2022-12-09T06:31:28.443Z,0.82
2022-12-09T06:33:58.716Z,0.82
2022-12-09T06:36:29.073Z,0.79
2022-12-09T06:39:07.629Z,0.80
2022-12-09T06:41:38.119Z,0.74
2022-12-09T06:44:07.379Z,0.73
2022-12-09T06:46:36.103Z,0.73
2022-12-09T06:49:04.760Z,0.71
2022-12-09T06:51:33.307Z,0.72
2022-12-09T06:54:03.223Z,0.72
2022-12-09T06:56:32.669Z,0.70
2022-12-09T06:59:01.307Z,0.74
2022-12-09T07:01:30.101Z,0.74
2022-12-09T07:03:58.673Z,0.74
2022-12-09T07:06:31.021Z,0.74
2022-12-09T07:09:01.283Z,0.77
2022-12-09T07:11:32.006Z,0.76
2022-12-09T07:14:03.105Z,0.80
2022-12-09T07:16:31.938Z,0.81
2022-12-09T07:19:00.574Z,0.80
2022-12-09T07:21:30.433Z,0.81
2022-12-09T07:24:00.758Z,0.82
2022-12-09T07:26:35.210Z,0.83
2022-12-09T07:29:04.490Z,0.83
2022-12-09T07:31:33.637Z,0.82
2022-12-09T07:34:03.018Z,0.79
2022-12-09T07:36:33.642Z,0.82
2022-12-09T07:39:09.109Z,0.98
2022-12-09T07:41:39.488Z,0.98
2022-12-09T07:44:08.043Z,0.99
2022-12-09T07:46:37.117Z,0.91
2022-12-09T07:49:07.259Z,0.86
2022-12-09T07:51:36.275Z,0.83
2022-12-09T07:54:05.390Z,0.80
2022-12-09T07:56:33.786Z,0.76
2022-12-09T07:59:07.110Z,0.80
2022-12-09T08:01:36.436Z,0.79
2022-12-09T08:04:07.266Z,0.77
2022-12-09T08:06:37.086Z,0.74
2022-12-09T08:09:09.267Z,0.74
2022-12-09T08:11:38.001Z,0.74
2022-12-09T08:14:13.062Z,0.72
2022-12-09T08:16:43.410Z,0.71
2022-12-09T08:19:12.656Z,0.71
2022-12-09T08:21:41.700Z,0.69
2022-12-09T08:24:12.870Z,0.69
2022-12-09T08:26:41.447Z,0.68
2022-12-09T08:29:14.313Z,0.68
2022-12-09T08:31:44.387Z,0.67
2022-12-09T08:34:13.550Z,0.69
2022-12-09T08:36:43.295Z,0.65
2022-12-09T08:39:12.385Z,0.65
2022-12-09T08:41:41.187Z,0.65
2022-12-09T08:44:13.599Z,0.66
2022-12-09T08:46:44.622Z,0.63
2022-12-09T08:49:14.344Z,0.63
2022-12-09T08:51:42.834Z,0.60
2022-12-09T08:54:11.428Z,0.59
2022-12-09T08:56:40.149Z,0.61
2022-12-09T08:59:08.472Z,0.57
2022-12-09T09:01:38.195Z,0.56
2022-12-09T09:04:09.496Z,0.70
2022-12-09T09:06:39.721Z,0.58
2022-12-09T09:09:10.209Z,0.56
2022-12-09T09:11:39.458Z,0.54
2022-12-09T09:14:10.827Z,0.59
2022-12-09T09:16:41.213Z,0.60
2022-12-09T09:19:14.190Z,0.64
2022-12-09T09:21:42.510Z,0.66
2022-12-09T09:24:12.909Z,0.66
2022-12-09T09:26:44.254Z,0.66
2022-12-09T09:29:13.476Z,0.69
2022-12-09T09:31:43.336Z,0.71
2022-12-09T09:34:12.458Z,0.73
2022-12-09T09:36:42.904Z,0.75
2022-12-09T09:39:11.851Z,0.75
2022-12-09T09:41:47.186Z,0.80
2022-12-09T09:44:23.406Z,0.84
2022-12-09T09:46:55.530Z,0.86
2022-12-09T09:49:32.039Z,0.90
2022-12-09T09:52:05.290Z,0.95
2022-12-09T09:54:33.728Z,1.00
2022-12-09T09:57:07.835Z,1.03
2022-12-09T09:59:44.750Z,1.03
2022-12-09T10:02:24.072Z,1.08
2022-12-09T10:05:05.824Z,1.09
2022-12-09T10:07:42.381Z,1.16
2022-12-09T10:10:23.239Z,1.22
2022-12-09T10:13:08.360Z,1.23
2022-12-09T10:15:47.191Z,1.27
2022-12-09T10:18:21.036Z,1.28
2022-12-09T10:20:49.647Z,1.28
2022-12-09T10:23:18.396Z,1.31
2022-12-09T10:25:51.943Z,1.28
2022-12-09T10:28:23.936Z,1.35
2022-12-09T10:30:54.506Z,1.33
2022-12-09T10:33:33.523Z,1.40
2022-12-09T10:36:02.884Z,1.45
2022-12-09T10:38:32.429Z,1.48
2022-12-09T10:41:07.312Z,1.51
2022-12-09T10:43:38.872Z,1.56
2022-12-09T10:46:19.694Z,1.59
2022-12-09T10:48:58.954Z,1.59
2022-12-09T10:51:30.144Z,1.69
2022-12-09T10:54:00.989Z,1.77
2022-12-09T10:56:32.486Z,1.79
2022-12-09T10:59:12.708Z,1.83
2022-12-09T11:01:50.644Z,1.82
2022-12-09T11:04:26.348Z,1.88
2022-12-09T11:07:00.080Z,1.93
2022-12-09T11:09:32.244Z,2.04
2022-12-09T11:12:02.251Z,2.13
2022-12-09T11:14:35.751Z,2.22
2022-12-09T11:17:16.638Z,2.27
2022-12-09T11:19:50.908Z,2.35
2022-12-09T11:22:39.660Z,2.40
2022-12-09T11:25:24.949Z,2.46
2022-12-09T11:27:56.168Z,2.49
2022-12-09T11:30:27.009Z,2.50
2022-12-09T11:32:59.745Z,2.64
2022-12-09T11:35:38.512Z,2.67
2022-12-09T11:38:19.489Z,2.77
2022-12-09T11:41:04.224Z,2.69
2022-12-09T11:43:40.609Z,2.69
2022-12-09T11:46:21.580Z,2.72
2022-12-09T11:48:54.980Z,2.72
2022-12-09T11:51:30.073Z,2.73
2022-12-09T11:54:05.701Z,2.76
2022-12-09T11:56:36.024Z,2.80
2022-12-09T11:59:07.792Z,2.79
2022-12-09T12:01:48.862Z,2.81
2022-12-09T12:04:21.234Z,2.79
2022-12-09T12:06:56.758Z,2.81
2022-12-09T12:09:30.860Z,2.83
2022-12-09T12:12:06.211Z,2.77
2022-12-09T12:14:38.738Z,2.81
2022-12-09T12:17:15.037Z,2.83
2022-12-09T12:19:47.163Z,2.86
2022-12-09T12:22:52.979Z,2.88
2022-12-09T12:25:35.007Z,2.84
2022-12-09T12:28:22.872Z,2.79
2022-12-09T12:30:59.046Z,2.76
2022-12-09T12:36:39.984Z,2.71
2022-12-09T12:39:15.337Z,2.65
2022-12-09T12:41:52.892Z,2.53
2022-12-09T12:44:52.957Z,2.54
2022-12-09T12:47:26.132Z,2.50
2022-12-09T12:50:32.308Z,2.47
2022-12-09T12:53:10.240Z,2.46
2022-12-09T12:55:49.068Z,2.46
2022-12-09T12:58:30.028Z,2.49
2022-12-09T13:01:04.484Z,2.49
2022-12-09T13:03:40.512Z,2.50
2022-12-09T13:06:12.884Z,2.50
2022-12-09T13:08:45.634Z,2.49
2022-12-09T13:11:18.117Z,2.49
2022-12-09T13:13:52.759Z,2.50
2022-12-09T13:16:27.956Z,2.50
2022-12-09T13:19:07.521Z,2.51
2022-12-09T13:21:36.312Z,2.52
2022-12-09T13:24:18.190Z,2.50
2022-12-09T13:26:52.794Z,2.49
2022-12-09T13:29:38.035Z,2.46
2022-12-09T13:32:21.382Z,2.42
2022-12-09T13:34:54.647Z,2.47
2022-12-09T13:38:00.189Z,2.45
2022-12-09T13:40:35.408Z,2.47
2022-12-09T13:43:13.026Z,2.48
2022-12-09T13:45:51.660Z,2.51
2022-12-09T13:48:55.351Z,2.50
2022-12-09T13:51:27.490Z,2.50
2022-12-09T13:54:03.817Z,2.48
2022-12-09T13:56:35.415Z,2.47
2022-12-09T13:59:24.805Z,2.46
2022-12-09T14:01:58.768Z,2.44
2022-12-09T14:04:30.467Z,2.42
2022-12-09T14:07:10.716Z,2.36
2022-12-09T14:09:50.954Z,2.34
2022-12-09T14:12:51.998Z,2.32
2022-12-09T14:15:36.568Z,2.25
2022-12-09T14:18:26.691Z,2.24
2022-12-09T14:21:29.095Z,2.17
2022-12-09T14:24:34.481Z,2.16
2022-12-09T14:27:15.470Z,2.14
2022-12-09T14:29:55.723Z,2.09
2022-12-09T14:32:27.210Z,2.05
2022-12-09T14:35:23.976Z,2.05
2022-12-09T14:38:21.107Z,2.01
2022-12-09T14:41:07.198Z,2.02
2022-12-09T14:43:47.148Z,2.09
2022-12-09T14:46:25.577Z,2.10
2022-12-09T14:48:57.893Z,2.04
2022-12-09T14:51:34.454Z,2.02
2022-12-09T14:54:06.049Z,1.95
2022-12-09T14:56:35.170Z,1.93
2022-12-09T14:59:07.081Z,1.92
2022-12-09T15:01:56.367Z,1.90
2022-12-09T15:04:31.897Z,1.87
2022-12-09T15:07:16.085Z,1.84
2022-12-09T15:09:52.614Z,1.81
2022-12-09T15:12:22.970Z,1.78
2022-12-09T15:14:56.375Z,1.76
2022-12-09T15:17:28.418Z,1.75
2022-12-09T15:20:01.016Z,1.74
2022-12-09T15:22:33.470Z,1.71
2022-12-09T15:25:03.255Z,1.68
2022-12-09T15:27:31.738Z,1.66
2022-12-09T15:29:59.882Z,1.65
2022-12-09T15:32:30.368Z,1.61
2022-12-09T15:35:18.086Z,1.48
2022-12-09T15:37:48.468Z,1.43
2022-12-09T15:40:20.279Z,1.38
2022-12-09T15:42:52.190Z,1.36
2022-12-09T15:45:24.406Z,1.35
2022-12-09T15:47:57.735Z,1.32
2022-12-09T15:50:30.285Z,1.32
2022-12-09T15:53:06.670Z,1.27
2022-12-09T15:55:42.284Z,1.22
2022-12-09T15:58:14.189Z,1.21
2022-12-09T16:00:48.938Z,1.32
2022-12-09T16:03:20.264Z,1.20
2022-12-09T16:05:51.954Z,1.18
2022-12-09T16:08:22.237Z,1.13
2022-12-09T16:10:52.018Z,1.11
2022-12-09T16:13:21.379Z,1.08
2022-12-09T16:15:52.603Z,1.04
2022-12-09T16:18:24.394Z,1.03
2022-12-09T16:21:18.875Z,1.01
2022-12-09T16:23:52.915Z,1.02
2022-12-09T16:26:28.465Z,1.02
2022-12-09T16:28:59.374Z,1.01
2022-12-09T16:31:28.197Z,1.00
2022-12-09T16:33:56.910Z,0.97
2022-12-09T16:36:27.763Z,0.97
2022-12-09T16:39:38.229Z,0.95
2022-12-09T16:42:22.336Z,0.94
2022-12-09T16:44:50.800Z,0.94
2022-12-09T16:47:20.980Z,0.91
2022-12-09T16:49:49.919Z,1.07
2022-12-09T16:52:21.479Z,1.03
2022-12-09T16:54:51.020Z,0.93
2022-12-09T16:57:21.635Z,0.92
2022-12-09T16:59:51.028Z,0.91
2022-12-09T17:02:26.476Z,0.87
2022-12-09T17:04:54.675Z,0.84
2022-12-09T17:07:22.821Z,0.84
2022-12-09T17:09:51.168Z,0.81
2022-12-09T17:12:20.744Z,0.80
2022-12-09T17:14:49.018Z,0.80
2022-12-09T17:17:17.188Z,0.79
2022-12-09T17:19:45.341Z,0.76
2022-12-09T17:22:13.633Z,0.75
2022-12-09T17:24:41.847Z,0.76
2022-12-09T17:27:10.549Z,0.79
2022-12-09T17:29:40.123Z,0.82
2022-12-09T17:32:08.399Z,0.84
2022-12-09T17:34:36.601Z,0.84
2022-12-09T17:37:04.937Z,0.87
2022-12-09T17:39:33.422Z,0.90
2022-12-09T17:42:01.968Z,0.90
2022-12-09T17:44:30.322Z,0.92
2022-12-09T17:46:59.799Z,0.93
2022-12-09T17:49:27.999Z,0.94
2022-12-09T17:51:56.312Z,0.95
2022-12-09T17:54:26.613Z,0.97
2022-12-09T17:56:54.922Z,0.96
2022-12-09T17:59:23.237Z,0.97
2022-12-09T18:01:51.367Z,0.98
2022-12-09T18:04:21.055Z,0.95
2022-12-09T18:06:49.260Z,0.94
2022-12-09T18:09:20.043Z,0.95
2022-12-09T18:11:48.556Z,0.97
2022-12-09T18:14:17.713Z,0.99
2022-12-09T18:16:47.167Z,0.99
2022-12-09T18:19:17.693Z,0.99
2022-12-09T18:21:47.628Z,1.01
2022-12-09T18:24:15.861Z,1.04
2022-12-09T18:26:43.987Z,1.05
2022-12-09T18:29:12.460Z,1.21
2022-12-09T18:31:41.574Z,1.21
2022-12-09T18:34:09.846Z,1.22
2022-12-09T18:36:38.130Z,1.20
2022-12-09T18:39:08.122Z,1.09
2022-12-09T18:41:36.483Z,1.08
2022-12-09T18:44:06.619Z,1.09
2022-12-09T18:46:37.784Z,1.11
2022-12-09T18:49:07.388Z,1.10
2022-12-09T18:51:36.254Z,1.08
2022-12-09T18:54:05.383Z,1.06
2022-12-09T18:56:35.671Z,1.00
2022-12-09T18:59:07.121Z,1.00
2022-12-09T19:01:39.720Z,0.99
2022-12-09T19:04:12.025Z,1.01
2022-12-09T19:06:42.018Z,1.00
2022-12-09T19:09:12.144Z,1.16
2022-12-09T19:11:43.834Z,1.22
2022-12-09T19:14:12.358Z,1.10
2022-12-09T19:16:41.072Z,1.08
2022-12-09T19:19:10.916Z,1.07
2022-12-09T19:21:40.212Z,1.09
2022-12-09T19:24:09.634Z,1.12
2022-12-09T19:26:38.130Z,1.08
2022-12-09T19:29:09.106Z,1.11
2022-12-09T19:31:39.348Z,1.12
2022-12-09T19:34:09.468Z,1.14
2022-12-09T19:36:37.929Z,1.17
2022-12-09T19:39:09.386Z,1.19
2022-12-09T19:41:38.500Z,1.19
2022-12-09T19:44:08.874Z,1.16
2022-12-09T19:46:38.651Z,1.18
2022-12-09T19:49:06.842Z,1.19
2022-12-09T19:51:35.258Z,1.22
2022-12-09T19:54:03.738Z,1.26
2022-12-09T19:56:32.015Z,1.26
2022-12-09T19:59:01.470Z,1.31
2022-12-09T20:01:33.727Z,1.34
2022-12-09T20:04:19.216Z,1.33
2022-12-09T20:06:52.386Z,1.33
2022-12-09T20:09:24.121Z,1.31
2022-12-09T20:11:52.828Z,1.31
2022-12-09T20:14:21.201Z,1.30
2022-12-09T20:16:50.786Z,1.23
2022-12-09T20:19:19.840Z,1.29
2022-12-09T20:21:48.898Z,1.31
2022-12-09T20:24:17.190Z,1.32
2022-12-09T20:26:45.451Z,1.32
2022-12-09T20:29:14.089Z,1.36
2022-12-09T20:31:43.763Z,1.33
2022-12-09T20:34:16.194Z,1.35
2022-12-09T20:36:46.080Z,1.37
2022-12-09T20:39:17.937Z,1.36
2022-12-09T20:41:46.637Z,1.39
2022-12-09T20:44:16.211Z,1.36
2022-12-09T20:46:47.492Z,1.40
2022-12-09T20:49:17.019Z,1.36
2022-12-09T20:51:47.040Z,1.36
2022-12-09T20:54:15.662Z,1.40
2022-12-09T20:56:43.940Z,1.35
2022-12-09T20:59:13.809Z,1.36
2022-12-09T21:01:43.656Z,1.38
2022-12-09T21:04:12.059Z,1.43
2022-12-09T21:06:43.010Z,1.45
2022-12-09T21:09:17.659Z,1.48
2022-12-09T21:11:46.082Z,1.51
2022-12-09T21:14:14.625Z,1.55
2022-12-09T21:16:47.039Z,1.58
2022-12-09T21:19:17.206Z,1.61
2022-12-09T21:21:48.520Z,1.62
2022-12-09T21:24:16.736Z,1.59
2022-12-09T21:26:46.452Z,1.63
2022-12-09T21:29:16.404Z,1.67
2022-12-09T21:31:48.274Z,1.68
2022-12-09T21:34:17.756Z,1.71
2022-12-09T21:36:48.356Z,1.72
2022-12-09T21:39:17.464Z,1.69
2022-12-09T21:41:45.785Z,1.73
2022-12-09T21:44:16.949Z,1.73
2022-12-09T21:46:45.720Z,1.76
2022-12-09T21:49:14.845Z,1.77
2022-12-09T21:51:43.840Z,1.83
2022-12-09T21:54:13.732Z,1.84
2022-12-09T21:56:42.113Z,1.85
2022-12-09T21:59:12.251Z,1.87
2022-12-09T22:01:42.465Z,1.91
2022-12-09T22:04:13.502Z,1.89
2022-12-09T22:06:41.822Z,1.91
2022-12-09T22:09:11.847Z,1.92
2022-12-09T22:11:42.074Z,1.92
2022-12-09T22:14:11.402Z,1.93
2022-12-09T22:16:42.267Z,1.96
2022-12-09T22:19:14.201Z,1.95
2022-12-09T22:21:42.900Z,1.93
2022-12-09T22:24:12.974Z,1.94
2022-12-09T22:26:43.654Z,1.97
2022-12-09T22:29:13.258Z,2.00
2022-12-09T22:31:42.093Z,1.98
2022-12-09T22:34:13.499Z,2.00
2022-12-09T22:36:42.371Z,1.99
2022-12-09T22:39:13.947Z,2.01
2022-12-09T22:41:44.117Z,1.99
2022-12-09T22:44:14.043Z,1.97
2022-12-09T22:46:43.195Z,2.01
2022-12-09T22:49:13.104Z,1.97
2022-12-09T22:51:42.019Z,1.95
2022-12-09T22:54:11.270Z,1.96
2022-12-09T22:56:41.560Z,1.97
2022-12-09T22:59:11.437Z,1.98
2022-12-09T23:01:43.243Z,1.97
2022-12-09T23:04:12.975Z,1.97
2022-12-09T23:06:41.987Z,1.97
2022-12-09T23:09:14.626Z,1.96
2022-12-09T23:11:43.447Z,1.97
2022-12-09T23:14:13.227Z,1.94
2022-12-09T23:16:41.501Z,1.86
2022-12-09T23:19:11.623Z,1.86
2022-12-09T23:21:41.935Z,1.81
2022-12-09T23:24:12.674Z,1.76
2022-12-09T23:26:42.683Z,1.73
2022-12-09T23:29:16.278Z,1.66
2022-12-09T23:31:44.980Z,1.68
2022-12-09T23:34:14.266Z,1.67
2022-12-09T23:36:44.401Z,1.64
2022-12-09T23:39:16.425Z,1.63
2022-12-09T23:41:46.303Z,1.61
2022-12-09T23:44:18.967Z,1.59
2022-12-09T23:46:47.257Z,1.58
2022-12-09T23:49:16.229Z,1.57
2022-12-09T23:51:45.205Z,1.56
2022-12-09T23:54:14.989Z,1.55
2022-12-09T23:56:48.234Z,1.51
2022-12-09T23:59:20.049Z,1.51
